sensor_id;sensor_type;location;lat;lon;timestamp;P1;durP1;ratioP1;P2;durP2;ratioP2
577;SDS011;275;48.492;9.214;2023-07-13T00:00:35;5.00;;;2.67;;
577;SDS011;275;48.492;9.214;2023-07-13T00:03:02;5.00;;;2.10;;
577;SDS011;275;48.492;9.214;2023-07-13T00:05:29;4.30;;;2.17;;
577;SDS011;275;48.492;9.214;2023-07-13T00:07:57;5.17;;;1.93;;
577;SDS011;275;48.492;9.214;2023-07-13T00:10:24;5.13;;;2.50;;
577;SDS011;275;48.492;9.214;2023-07-13T00:12:52;4.83;;;1.97;;
577;SDS011;275;48.492;9.214;2023-07-13T00:15:21;7.13;;;2.70;;
577;SDS011;275;48.492;9.214;2023-07-13T00:17:50;5.80;;;2.40;;
577;SDS011;275;48.492;9.214;2023-07-13T00:20:18;6.37;;;2.70;;
577;SDS011;275;48.492;9.214;2023-07-13T00:22:46;3.33;;;1.87;;
577;SDS011;275;48.492;9.214;2023-07-13T00:25:14;4.50;;;2.53;;
577;SDS011;275;48.492;9.214;2023-07-13T00:27:41;5.53;;;2.60;;
577;SDS011;275;48.492;9.214;2023-07-13T00:30:11;5.30;;;2.30;;
577;SDS011;275;48.492;9.214;2023-07-13T00:32:38;6.20;;;2.70;;
577;SDS011;275;48.492;9.214;2023-07-13T00:35:05;4.20;;;2.23;;
577;SDS011;275;48.492;9.214;2023-07-13T00:37:33;3.97;;;2.33;;
577;SDS011;275;48.492;9.214;2023-07-13T00:40:00;5.17;;;2.23;;
577;SDS011;275;48.492;9.214;2023-07-13T00:42:28;4.40;;;2.37;;
577;SDS011;275;48.492;9.214;2023-07-13T00:45:02;5.33;;;2.30;;
577;SDS011;275;48.492;9.214;2023-07-13T00:47:32;3.97;;;2.17;;
577;SDS011;275;48.492;9.214;2023-07-13T00:49:59;4.23;;;2.17;;
577;SDS011;275;48.492;9.214;2023-07-13T00:52:27;6.00;;;2.57;;
577;SDS011;275;48.492;9.214;2023-07-13T00:54:54;5.00;;;2.47;;
577;SDS011;275;48.492;9.214;2023-07-13T00:57:22;5.33;;;2.77;;
577;SDS011;275;48.492;9.214;2023-07-13T00:59:50;3.90;;;2.10;;
577;SDS011;275;48.492;9.214;2023-07-13T01:02:21;4.13;;;2.43;;
577;SDS011;275;48.492;9.214;2023-07-13T01:04:51;4.13;;;2.20;;
577;SDS011;275;48.492;9.214;2023-07-13T01:07:18;4.30;;;2.27;;
577;SDS011;275;48.492;9.214;2023-07-13T01:09:45;5.73;;;2.20;;
577;SDS011;275;48.492;9.214;2023-07-13T01:12:12;3.60;;;1.93;;
577;SDS011;275;48.492;9.214;2023-07-13T01:14:39;4.63;;;2.80;;
577;SDS011;275;48.492;9.214;2023-07-13T01:17:08;3.67;;;2.00;;
577;SDS011;275;48.492;9.214;2023-07-13T01:19:36;4.47;;;2.00;;
577;SDS011;275;48.492;9.214;2023-07-13T01:22:07;3.87;;;2.10;;
577;SDS011;275;48.492;9.214;2023-07-13T01:24:36;5.30;;;1.80;;
577;SDS011;275;48.492;9.214;2023-07-13T01:27:04;6.80;;;2.07;;
577;SDS011;275;48.492;9.214;2023-07-13T01:29:33;3.60;;;1.70;;
577;SDS011;275;48.492;9.214;2023-07-13T01:32:07;7.03;;;2.20;;
577;SDS011;275;48.492;9.214;2023-07-13T01:34:35;5.80;;;2.23;;
577;SDS011;275;48.492;9.214;2023-07-13T01:37:03;4.00;;;1.97;;
577;SDS011;275;48.492;9.214;2023-07-13T01:39:32;4.13;;;1.97;;
577;SDS011;275;48.492;9.214;2023-07-13T01:41:58;6.50;;;2.27;;
577;SDS011;275;48.492;9.214;2023-07-13T01:44:25;5.23;;;2.03;;
577;SDS011;275;48.492;9.214;2023-07-13T01:46:52;5.50;;;2.30;;
577;SDS011;275;48.492;9.214;2023-07-13T01:49:19;3.77;;;2.10;;
577;SDS011;275;48.492;9.214;2023-07-13T01:51:46;4.20;;;1.93;;
577;SDS011;275;48.492;9.214;2023-07-13T01:54:13;6.07;;;2.33;;
577;SDS011;275;48.492;9.214;2023-07-13T01:56:41;3.83;;;1.70;;
577;SDS011;275;48.492;9.214;2023-07-13T01:59:08;3.90;;;2.10;;
577;SDS011;275;48.492;9.214;2023-07-13T02:01:35;4.17;;;1.80;;
577;SDS011;275;48.492;9.214;2023-07-13T02:04:02;4.10;;;2.03;;
577;SDS011;275;48.492;9.214;2023-07-13T02:06:29;6.07;;;1.90;;
577;SDS011;275;48.492;9.214;2023-07-13T02:08:56;3.70;;;2.23;;
577;SDS011;275;48.492;9.214;2023-07-13T02:11:23;4.37;;;1.97;;
577;SDS011;275;48.492;9.214;2023-07-13T02:13:58;4.80;;;1.90;;
577;SDS011;275;48.492;9.214;2023-07-13T02:16:26;4.67;;;1.70;;
577;SDS011;275;48.492;9.214;2023-07-13T02:18:53;3.73;;;1.80;;
577;SDS011;275;48.492;9.214;2023-07-13T02:21:20;3.80;;;1.90;;
577;SDS011;275;48.492;9.214;2023-07-13T02:23:48;4.90;;;1.90;;
577;SDS011;275;48.492;9.214;2023-07-13T02:26:15;5.70;;;2.10;;
577;SDS011;275;48.492;9.214;2023-07-13T02:28:42;4.90;;;2.23;;
577;SDS011;275;48.492;9.214;2023-07-13T02:31:11;5.63;;;2.80;;
577;SDS011;275;48.492;9.214;2023-07-13T02:33:40;6.00;;;2.27;;
577;SDS011;275;48.492;9.214;2023-07-13T02:36:07;3.83;;;2.07;;
577;SDS011;275;48.492;9.214;2023-07-13T02:38:35;3.20;;;2.03;;
577;SDS011;275;48.492;9.214;2023-07-13T02:41:02;4.27;;;2.33;;
577;SDS011;275;48.492;9.214;2023-07-13T02:43:29;5.40;;;2.27;;
577;SDS011;275;48.492;9.214;2023-07-13T02:45:56;6.47;;;3.13;;
577;SDS011;275;48.492;9.214;2023-07-13T02:48:30;4.87;;;2.20;;
577;SDS011;275;48.492;9.214;2023-07-13T02:50:57;4.43;;;2.30;;
577;SDS011;275;48.492;9.214;2023-07-13T02:53:24;5.90;;;2.50;;
577;SDS011;275;48.492;9.214;2023-07-13T02:55:51;4.13;;;2.17;;
577;SDS011;275;48.492;9.214;2023-07-13T02:58:17;4.57;;;2.40;;
577;SDS011;275;48.492;9.214;2023-07-13T03:00:45;4.70;;;2.40;;
577;SDS011;275;48.492;9.214;2023-07-13T03:03:13;6.20;;;2.30;;
577;SDS011;275;48.492;9.214;2023-07-13T03:05:43;6.10;;;2.30;;
577;SDS011;275;48.492;9.214;2023-07-13T03:08:15;3.83;;;2.43;;
577;SDS011;275;48.492;9.214;2023-07-13T03:10:43;5.40;;;2.50;;
577;SDS011;275;48.492;9.214;2023-07-13T03:13:09;5.50;;;1.90;;
577;SDS011;275;48.492;9.214;2023-07-13T03:15:36;4.93;;;2.57;;
577;SDS011;275;48.492;9.214;2023-07-13T03:18:03;6.50;;;2.03;;
577;SDS011;275;48.492;9.214;2023-07-13T03:20:32;4.83;;;2.03;;
577;SDS011;275;48.492;9.214;2023-07-13T03:23:00;4.53;;;2.00;;
577;SDS011;275;48.492;9.214;2023-07-13T03:25:28;4.30;;;2.60;;
577;SDS011;275;48.492;9.214;2023-07-13T03:27:55;3.83;;;2.23;;
577;SDS011;275;48.492;9.214;2023-07-13T03:30:22;4.00;;;2.37;;
577;SDS011;275;48.492;9.214;2023-07-13T03:32:48;5.70;;;2.93;;
577;SDS011;275;48.492;9.214;2023-07-13T03:35:15;6.43;;;3.03;;
577;SDS011;275;48.492;9.214;2023-07-13T03:37:42;6.37;;;2.83;;
577;SDS011;275;48.492;9.214;2023-07-13T03:40:11;4.93;;;2.43;;
577;SDS011;275;48.492;9.214;2023-07-13T03:42:38;6.37;;;2.60;;
577;SDS011;275;48.492;9.214;2023-07-13T03:45:06;4.20;;;2.63;;
577;SDS011;275;48.492;9.214;2023-07-13T03:47:34;3.70;;;2.23;;
577;SDS011;275;48.492;9.214;2023-07-13T03:50:00;6.37;;;2.97;;
577;SDS011;275;48.492;9.214;2023-07-13T03:52:28;6.73;;;2.80;;
577;SDS011;275;48.492;9.214;2023-07-13T03:54:55;5.73;;;2.27;;
577;SDS011;275;48.492;9.214;2023-07-13T03:57:23;7.83;;;2.23;;
577;SDS011;275;48.492;9.214;2023-07-13T03:59:50;6.23;;;2.57;;
577;SDS011;275;48.492;9.214;2023-07-13T04:02:17;6.67;;;2.47;;
577;SDS011;275;48.492;9.214;2023-07-13T04:04:43;6.30;;;2.37;;
577;SDS011;275;48.492;9.214;2023-07-13T04:07:11;6.77;;;2.57;;
577;SDS011;275;48.492;9.214;2023-07-13T04:09:37;6.53;;;2.10;;
577;SDS011;275;48.492;9.214;2023-07-13T04:12:05;7.33;;;2.83;;
577;SDS011;275;48.492;9.214;2023-07-13T04:14:34;6.63;;;2.27;;
577;SDS011;275;48.492;9.214;2023-07-13T04:17:00;5.10;;;2.63;;
577;SDS011;275;48.492;9.214;2023-07-13T04:19:27;3.87;;;2.17;;
577;SDS011;275;48.492;9.214;2023-07-13T04:21:54;4.70;;;2.60;;
577;SDS011;275;48.492;9.214;2023-07-13T04:24:21;4.43;;;2.13;;
577;SDS011;275;48.492;9.214;2023-07-13T04:26:47;5.10;;;2.83;;
577;SDS011;275;48.492;9.214;2023-07-13T04:29:14;5.47;;;2.57;;
577;SDS011;275;48.492;9.214;2023-07-13T04:31:43;4.40;;;2.13;;
577;SDS011;275;48.492;9.214;2023-07-13T04:34:09;6.90;;;2.80;;
577;SDS011;275;48.492;9.214;2023-07-13T04:36:36;5.97;;;2.60;;
577;SDS011;275;48.492;9.214;2023-07-13T04:39:03;4.37;;;2.60;;
577;SDS011;275;48.492;9.214;2023-07-13T04:41:30;4.60;;;2.10;;
577;SDS011;275;48.492;9.214;2023-07-13T04:43:57;5.20;;;2.60;;
577;SDS011;275;48.492;9.214;2023-07-13T04:46:23;4.30;;;2.27;;
577;SDS011;275;48.492;9.214;2023-07-13T04:48:52;3.90;;;2.47;;
577;SDS011;275;48.492;9.214;2023-07-13T04:51:19;4.33;;;2.77;;
577;SDS011;275;48.492;9.214;2023-07-13T04:53:46;5.50;;;2.47;;
577;SDS011;275;48.492;9.214;2023-07-13T04:56:12;5.93;;;2.50;;
577;SDS011;275;48.492;9.214;2023-07-13T04:58:39;4.87;;;2.50;;
577;SDS011;275;48.492;9.214;2023-07-13T05:01:06;5.57;;;2.70;;
577;SDS011;275;48.492;9.214;2023-07-13T05:03:34;6.47;;;2.60;;
577;SDS011;275;48.492;9.214;2023-07-13T05:06:02;5.20;;;2.90;;
577;SDS011;275;48.492;9.214;2023-07-13T05:08:30;6.20;;;2.90;;
577;SDS011;275;48.492;9.214;2023-07-13T05:10:58;5.40;;;2.73;;
577;SDS011;275;48.492;9.214;2023-07-13T05:13:26;4.47;;;2.70;;
577;SDS011;275;48.492;9.214;2023-07-13T05:15:56;5.13;;;2.60;;
577;SDS011;275;48.492;9.214;2023-07-13T05:18:24;5.03;;;2.37;;
577;SDS011;275;48.492;9.214;2023-07-13T05:21:00;7.63;;;2.57;;
577;SDS011;275;48.492;9.214;2023-07-13T05:23:30;5.10;;;2.80;;
577;SDS011;275;48.492;9.214;2023-07-13T05:25:58;6.70;;;2.60;;
577;SDS011;275;48.492;9.214;2023-07-13T05:28:25;5.40;;;2.60;;
577;SDS011;275;48.492;9.214;2023-07-13T05:30:52;4.50;;;2.97;;
577;SDS011;275;48.492;9.214;2023-07-13T05:33:20;5.73;;;3.80;;
577;SDS011;275;48.492;9.214;2023-07-13T05:35:47;4.03;;;2.40;;
577;SDS011;275;48.492;9.214;2023-07-13T05:38:15;5.97;;;2.60;;
577;SDS011;275;48.492;9.214;2023-07-13T05:40:42;5.10;;;2.30;;
577;SDS011;275;48.492;9.214;2023-07-13T05:43:09;4.27;;;2.53;;
577;SDS011;275;48.492;9.214;2023-07-13T05:45:36;6.20;;;2.53;;
577;SDS011;275;48.492;9.214;2023-07-13T05:48:03;6.60;;;2.80;;
577;SDS011;275;48.492;9.214;2023-07-13T05:50:30;7.07;;;2.93;;
577;SDS011;275;48.492;9.214;2023-07-13T05:52:57;6.33;;;2.80;;
577;SDS011;275;48.492;9.214;2023-07-13T05:55:25;5.43;;;2.20;;
577;SDS011;275;48.492;9.214;2023-07-13T05:57:52;6.10;;;2.40;;
577;SDS011;275;48.492;9.214;2023-07-13T06:00:19;4.03;;;2.03;;
577;SDS011;275;48.492;9.214;2023-07-13T06:02:46;3.87;;;1.70;;
577;SDS011;275;48.492;9.214;2023-07-13T06:05:13;5.27;;;2.23;;
577;SDS011;275;48.492;9.214;2023-07-13T06:07:40;4.90;;;1.97;;
577;SDS011;275;48.492;9.214;2023-07-13T06:10:08;4.73;;;2.10;;
577;SDS011;275;48.492;9.214;2023-07-13T06:12:36;7.40;;;2.20;;
577;SDS011;275;48.492;9.214;2023-07-13T06:15:03;6.07;;;1.90;;
577;SDS011;275;48.492;9.214;2023-07-13T06:17:31;4.67;;;2.03;;
577;SDS011;275;48.492;9.214;2023-07-13T06:19:58;8.23;;;3.00;;
577;SDS011;275;48.492;9.214;2023-07-13T06:22:25;4.80;;;2.30;;
577;SDS011;275;48.492;9.214;2023-07-13T06:24:52;5.23;;;2.07;;
577;SDS011;275;48.492;9.214;2023-07-13T06:27:18;6.53;;;2.73;;
577;SDS011;275;48.492;9.214;2023-07-13T06:29:47;4.90;;;2.40;;
577;SDS011;275;48.492;9.214;2023-07-13T06:32:14;6.33;;;2.23;;
577;SDS011;275;48.492;9.214;2023-07-13T06:34:41;5.00;;;2.50;;
577;SDS011;275;48.492;9.214;2023-07-13T06:37:08;4.40;;;2.00;;
577;SDS011;275;48.492;9.214;2023-07-13T06:39:35;5.00;;;2.47;;
577;SDS011;275;48.492;9.214;2023-07-13T06:42:02;6.10;;;2.20;;
577;SDS011;275;48.492;9.214;2023-07-13T06:44:29;6.30;;;2.67;;
577;SDS011;275;48.492;9.214;2023-07-13T06:46:57;3.67;;;2.20;;
577;SDS011;275;48.492;9.214;2023-07-13T06:49:24;5.73;;;2.50;;
577;SDS011;275;48.492;9.214;2023-07-13T06:51:51;4.10;;;2.10;;
577;SDS011;275;48.492;9.214;2023-07-13T06:54:18;3.83;;;1.90;;
577;SDS011;275;48.492;9.214;2023-07-13T06:56:45;4.73;;;2.27;;
577;SDS011;275;48.492;9.214;2023-07-13T06:59:12;3.90;;;2.17;;
577;SDS011;275;48.492;9.214;2023-07-13T07:01:39;5.23;;;2.40;;
577;SDS011;275;48.492;9.214;2023-07-13T07:04:07;5.40;;;2.10;;
577;SDS011;275;48.492;9.214;2023-07-13T07:06:34;6.23;;;2.50;;
577;SDS011;275;48.492;9.214;2023-07-13T07:09:00;5.40;;;2.20;;
577;SDS011;275;48.492;9.214;2023-07-13T07:11:27;5.20;;;2.20;;
577;SDS011;275;48.492;9.214;2023-07-13T07:13:54;4.83;;;1.90;;
577;SDS011;275;48.492;9.214;2023-07-13T07:16:21;8.00;;;2.40;;
577;SDS011;275;48.492;9.214;2023-07-13T07:18:48;5.40;;;2.10;;
577;SDS011;275;48.492;9.214;2023-07-13T07:21:16;3.87;;;1.60;;
577;SDS011;275;48.492;9.214;2023-07-13T07:23:43;4.70;;;2.07;;
577;SDS011;275;48.492;9.214;2023-07-13T07:26:10;3.90;;;1.23;;
577;SDS011;275;48.492;9.214;2023-07-13T07:28:37;5.63;;;1.70;;
577;SDS011;275;48.492;9.214;2023-07-13T07:31:04;3.77;;;1.67;;
577;SDS011;275;48.492;9.214;2023-07-13T07:33:31;4.57;;;1.83;;
577;SDS011;275;48.492;9.214;2023-07-13T07:35:58;5.73;;;1.90;;
577;SDS011;275;48.492;9.214;2023-07-13T07:38:26;5.03;;;1.70;;
577;SDS011;275;48.492;9.214;2023-07-13T07:40:53;3.97;;;1.70;;
577;SDS011;275;48.492;9.214;2023-07-13T07:43:20;4.73;;;1.77;;
577;SDS011;275;48.492;9.214;2023-07-13T07:45:47;3.97;;;1.40;;
577;SDS011;275;48.492;9.214;2023-07-13T07:48:14;4.00;;;1.97;;
577;SDS011;275;48.492;9.214;2023-07-13T07:50:41;4.43;;;1.80;;
577;SDS011;275;48.492;9.214;2023-07-13T07:53:08;6.43;;;2.47;;
577;SDS011;275;48.492;9.214;2023-07-13T07:55:37;4.20;;;1.27;;
577;SDS011;275;48.492;9.214;2023-07-13T07:58:05;9.43;;;1.83;;
577;SDS011;275;48.492;9.214;2023-07-13T08:00:32;4.70;;;1.63;;
577;SDS011;275;48.492;9.214;2023-07-13T08:03:00;3.97;;;1.20;;
577;SDS011;275;48.492;9.214;2023-07-13T08:05:28;4.90;;;1.77;;
577;SDS011;275;48.492;9.214;2023-07-13T08:07:55;5.67;;;2.10;;
577;SDS011;275;48.492;9.214;2023-07-13T08:10:22;3.43;;;1.40;;
577;SDS011;275;48.492;9.214;2023-07-13T08:12:50;6.03;;;1.63;;
577;SDS011;275;48.492;9.214;2023-07-13T08:15:17;4.93;;;1.80;;
577;SDS011;275;48.492;9.214;2023-07-13T08:17:45;4.73;;;2.07;;
577;SDS011;275;48.492;9.214;2023-07-13T08:20:13;5.30;;;2.03;;
577;SDS011;275;48.492;9.214;2023-07-13T08:22:40;5.43;;;1.97;;
577;SDS011;275;48.492;9.214;2023-07-13T08:25:07;5.10;;;1.77;;
577;SDS011;275;48.492;9.214;2023-07-13T08:27:34;6.03;;;1.73;;
577;SDS011;275;48.492;9.214;2023-07-13T08:30:02;5.00;;;1.60;;
577;SDS011;275;48.492;9.214;2023-07-13T08:32:30;4.50;;;1.70;;
577;SDS011;275;48.492;9.214;2023-07-13T08:34:57;3.80;;;1.50;;
577;SDS011;275;48.492;9.214;2023-07-13T08:37:24;3.80;;;1.60;;
577;SDS011;275;48.492;9.214;2023-07-13T08:39:51;4.07;;;1.60;;
577;SDS011;275;48.492;9.214;2023-07-13T08:42:32;6.40;;;2.00;;
577;SDS011;275;48.492;9.214;2023-07-13T08:45:06;5.33;;;1.70;;
577;SDS011;275;48.492;9.214;2023-07-13T08:47:39;5.20;;;2.07;;
577;SDS011;275;48.492;9.214;2023-07-13T08:50:11;5.33;;;1.63;;
577;SDS011;275;48.492;9.214;2023-07-13T08:52:42;5.93;;;1.83;;
577;SDS011;275;48.492;9.214;2023-07-13T08:55:12;5.20;;;1.50;;
577;SDS011;275;48.492;9.214;2023-07-13T08:57:41;6.10;;;1.43;;
577;SDS011;275;48.492;9.214;2023-07-13T09:00:13;5.20;;;1.70;;
577;SDS011;275;48.492;9.214;2023-07-13T09:02:42;4.60;;;1.70;;
577;SDS011;275;48.492;9.214;2023-07-13T09:05:14;4.93;;;1.90;;
577;SDS011;275;48.492;9.214;2023-07-13T09:07:51;4.27;;;1.40;;
577;SDS011;275;48.492;9.214;2023-07-13T09:10:27;4.57;;;1.80;;
577;SDS011;275;48.492;9.214;2023-07-13T09:13:02;4.40;;;1.27;;
577;SDS011;275;48.492;9.214;2023-07-13T09:15:43;7.43;;;1.83;;
577;SDS011;275;48.492;9.214;2023-07-13T09:18:11;6.90;;;1.90;;
577;SDS011;275;48.492;9.214;2023-07-13T09:20:47;6.10;;;1.97;;
577;SDS011;275;48.492;9.214;2023-07-13T09:23:17;4.10;;;2.03;;
577;SDS011;275;48.492;9.214;2023-07-13T09:25:47;4.37;;;1.50;;
577;SDS011;275;48.492;9.214;2023-07-13T09:28:20;4.43;;;1.40;;
577;SDS011;275;48.492;9.214;2023-07-13T09:30:52;6.70;;;1.63;;
577;SDS011;275;48.492;9.214;2023-07-13T09:33:26;4.47;;;1.90;;
577;SDS011;275;48.492;9.214;2023-07-13T09:35:54;5.23;;;2.10;;
577;SDS011;275;48.492;9.214;2023-07-13T09:38:22;6.30;;;1.50;;
577;SDS011;275;48.492;9.214;2023-07-13T09:40:57;5.23;;;1.50;;
577;SDS011;275;48.492;9.214;2023-07-13T09:43:55;4.50;;;1.70;;
577;SDS011;275;48.492;9.214;2023-07-13T09:46:28;3.80;;;1.50;;
577;SDS011;275;48.492;9.214;2023-07-13T09:48:55;3.93;;;1.30;;
577;SDS011;275;48.492;9.214;2023-07-13T09:51:22;6.23;;;1.50;;
577;SDS011;275;48.492;9.214;2023-07-13T09:53:49;4.40;;;1.50;;
577;SDS011;275;48.492;9.214;2023-07-13T09:56:20;4.47;;;1.50;;
577;SDS011;275;48.492;9.214;2023-07-13T09:58:47;4.60;;;2.10;;
577;SDS011;275;48.492;9.214;2023-07-13T10:01:14;4.40;;;1.70;;
577;SDS011;275;48.492;9.214;2023-07-13T10:03:52;4.30;;;1.70;;
577;SDS011;275;48.492;9.214;2023-07-13T10:06:21;4.50;;;1.50;;
577;SDS011;275;48.492;9.214;2023-07-13T10:08:48;4.57;;;1.77;;
577;SDS011;275;48.492;9.214;2023-07-13T10:11:17;5.60;;;1.53;;
577;SDS011;275;48.492;9.214;2023-07-13T10:13:46;4.40;;;1.40;;
577;SDS011;275;48.492;9.214;2023-07-13T10:16:17;5.93;;;1.77;;
577;SDS011;275;48.492;9.214;2023-07-13T10:18:46;4.50;;;1.40;;
577;SDS011;275;48.492;9.214;2023-07-13T10:21:16;4.17;;;1.80;;
577;SDS011;275;48.492;9.214;2023-07-13T10:23:47;6.60;;;1.90;;
577;SDS011;275;48.492;9.214;2023-07-13T10:26:19;3.97;;;1.73;;
577;SDS011;275;48.492;9.214;2023-07-13T10:28:51;5.10;;;2.07;;
577;SDS011;275;48.492;9.214;2023-07-13T10:31:20;6.60;;;2.23;;
577;SDS011;275;48.492;9.214;2023-07-13T10:33:49;5.00;;;1.77;;
577;SDS011;275;48.492;9.214;2023-07-13T10:36:18;4.77;;;1.47;;
577;SDS011;275;48.492;9.214;2023-07-13T10:38:53;4.57;;;1.97;;
577;SDS011;275;48.492;9.214;2023-07-13T10:41:23;3.93;;;1.63;;
577;SDS011;275;48.492;9.214;2023-07-13T10:43:53;7.60;;;1.70;;
577;SDS011;275;48.492;9.214;2023-07-13T10:46:23;7.77;;;2.00;;
577;SDS011;275;48.492;9.214;2023-07-13T10:48:56;4.23;;;1.33;;
577;SDS011;275;48.492;9.214;2023-07-13T10:51:24;4.00;;;1.80;;
577;SDS011;275;48.492;9.214;2023-07-13T10:56:40;4.30;;;1.73;;
577;SDS011;275;48.492;9.214;2023-07-13T10:59:10;4.17;;;1.80;;
577;SDS011;275;48.492;9.214;2023-07-13T11:01:41;5.93;;;1.87;;
577;SDS011;275;48.492;9.214;2023-07-13T11:04:18;4.93;;;1.70;;
577;SDS011;275;48.492;9.214;2023-07-13T11:06:47;5.00;;;1.67;;
577;SDS011;275;48.492;9.214;2023-07-13T11:09:30;5.43;;;1.87;;
577;SDS011;275;48.492;9.214;2023-07-13T11:12:06;3.87;;;1.60;;
577;SDS011;275;48.492;9.214;2023-07-13T11:14:35;4.77;;;1.63;;
577;SDS011;275;48.492;9.214;2023-07-13T11:19:52;5.40;;;1.80;;
577;SDS011;275;48.492;9.214;2023-07-13T11:22:24;4.10;;;1.57;;
577;SDS011;275;48.492;9.214;2023-07-13T11:25:20;4.30;;;1.50;;
577;SDS011;275;48.492;9.214;2023-07-13T11:27:52;5.73;;;1.80;;
577;SDS011;275;48.492;9.214;2023-07-13T11:30:35;7.20;;;1.67;;
577;SDS011;275;48.492;9.214;2023-07-13T11:33:10;3.73;;;1.60;;
577;SDS011;275;48.492;9.214;2023-07-13T11:35:44;3.87;;;1.50;;
577;SDS011;275;48.492;9.214;2023-07-13T11:38:28;4.03;;;1.70;;
577;SDS011;275;48.492;9.214;2023-07-13T11:40:58;4.17;;;1.60;;
577;SDS011;275;48.492;9.214;2023-07-13T11:43:29;3.97;;;1.70;;
577;SDS011;275;48.492;9.214;2023-07-13T11:45:58;4.20;;;1.67;;
577;SDS011;275;48.492;9.214;2023-07-13T11:48:37;4.53;;;1.53;;
577;SDS011;275;48.492;9.214;2023-07-13T11:51:06;4.37;;;1.70;;
577;SDS011;275;48.492;9.214;2023-07-13T11:53:45;4.30;;;2.10;;
577;SDS011;275;48.492;9.214;2023-07-13T11:56:14;5.67;;;1.87;;
577;SDS011;275;48.492;9.214;2023-07-13T11:58:41;3.83;;;1.70;;
577;SDS011;275;48.492;9.214;2023-07-13T12:01:10;3.70;;;1.53;;
577;SDS011;275;48.492;9.214;2023-07-13T12:03:44;6.50;;;2.00;;
577;SDS011;275;48.492;9.214;2023-07-13T12:06:21;4.03;;;1.53;;
577;SDS011;275;48.492;9.214;2023-07-13T12:08:55;4.90;;;1.50;;
577;SDS011;275;48.492;9.214;2023-07-13T12:11:23;4.77;;;1.70;;
577;SDS011;275;48.492;9.214;2023-07-13T12:13:50;4.27;;;1.50;;
577;SDS011;275;48.492;9.214;2023-07-13T12:16:19;3.90;;;1.40;;
577;SDS011;275;48.492;9.214;2023-07-13T12:18:52;5.23;;;1.60;;
577;SDS011;275;48.492;9.214;2023-07-13T12:21:22;3.80;;;1.27;;
577;SDS011;275;48.492;9.214;2023-07-13T12:23:55;4.70;;;1.47;;
577;SDS011;275;48.492;9.214;2023-07-13T12:26:22;3.70;;;1.50;;
577;SDS011;275;48.492;9.214;2023-07-13T12:28:49;3.80;;;1.67;;
577;SDS011;275;48.492;9.214;2023-07-13T12:31:25;4.53;;;1.27;;
577;SDS011;275;48.492;9.214;2023-07-13T12:33:58;5.87;;;1.83;;
577;SDS011;275;48.492;9.214;2023-07-13T12:36:27;4.17;;;1.40;;
577;SDS011;275;48.492;9.214;2023-07-13T12:38:59;5.20;;;2.00;;
577;SDS011;275;48.492;9.214;2023-07-13T12:41:30;4.90;;;1.60;;
577;SDS011;275;48.492;9.214;2023-07-13T12:43:58;4.90;;;1.87;;
577;SDS011;275;48.492;9.214;2023-07-13T12:46:25;10.23;;;2.20;;
577;SDS011;275;48.492;9.214;2023-07-13T12:48:54;5.10;;;1.47;;
577;SDS011;275;48.492;9.214;2023-07-13T12:51:24;4.27;;;1.60;;
577;SDS011;275;48.492;9.214;2023-07-13T12:53:56;4.30;;;1.70;;
577;SDS011;275;48.492;9.214;2023-07-13T12:56:26;3.93;;;1.40;;
577;SDS011;275;48.492;9.214;2023-07-13T12:58:57;5.37;;;2.47;;
577;SDS011;275;48.492;9.214;2023-07-13T13:01:27;4.30;;;1.63;;
577;SDS011;275;48.492;9.214;2023-07-13T13:03:55;6.67;;;1.97;;
577;SDS011;275;48.492;9.214;2023-07-13T13:06:23;5.00;;;2.10;;
577;SDS011;275;48.492;9.214;2023-07-13T13:08:52;4.23;;;1.70;;
577;SDS011;275;48.492;9.214;2023-07-13T13:11:24;6.80;;;2.03;;
577;SDS011;275;48.492;9.214;2023-07-13T13:13:52;5.87;;;1.87;;
577;SDS011;275;48.492;9.214;2023-07-13T13:16:21;4.57;;;1.27;;
577;SDS011;275;48.492;9.214;2023-07-13T13:18:50;3.37;;;1.50;;
577;SDS011;275;48.492;9.214;2023-07-13T13:21:17;5.50;;;1.60;;
577;SDS011;275;48.492;9.214;2023-07-13T13:23:45;3.60;;;1.60;;
577;SDS011;275;48.492;9.214;2023-07-13T13:26:14;4.40;;;1.63;;
577;SDS011;275;48.492;9.214;2023-07-13T13:28:41;7.07;;;1.97;;
577;SDS011;275;48.492;9.214;2023-07-13T13:31:09;5.23;;;2.07;;
577;SDS011;275;48.492;9.214;2023-07-13T13:33:37;7.00;;;1.80;;
577;SDS011;275;48.492;9.214;2023-07-13T13:36:08;4.50;;;1.70;;
577;SDS011;275;48.492;9.214;2023-07-13T13:38:40;3.80;;;1.30;;
577;SDS011;275;48.492;9.214;2023-07-13T13:41:09;4.40;;;1.80;;
577;SDS011;275;48.492;9.214;2023-07-13T13:43:37;4.70;;;1.63;;
577;SDS011;275;48.492;9.214;2023-07-13T13:46:09;4.07;;;1.80;;
577;SDS011;275;48.492;9.214;2023-07-13T13:48:42;5.50;;;1.80;;
577;SDS011;275;48.492;9.214;2023-07-13T13:51:12;5.63;;;2.00;;
577;SDS011;275;48.492;9.214;2023-07-13T13:53:41;4.80;;;1.63;;
577;SDS011;275;48.492;9.214;2023-07-13T13:56:08;3.70;;;1.73;;
577;SDS011;275;48.492;9.214;2023-07-13T13:58:35;4.40;;;1.53;;
577;SDS011;275;48.492;9.214;2023-07-13T14:01:03;4.23;;;2.00;;
577;SDS011;275;48.492;9.214;2023-07-13T14:03:33;4.07;;;1.57;;
577;SDS011;275;48.492;9.214;2023-07-13T14:06:00;5.10;;;1.50;;
577;SDS011;275;48.492;9.214;2023-07-13T14:08:27;4.23;;;1.80;;
577;SDS011;275;48.492;9.214;2023-07-13T14:10:55;4.47;;;2.00;;
577;SDS011;275;48.492;9.214;2023-07-13T14:13:25;4.67;;;2.13;;
577;SDS011;275;48.492;9.214;2023-07-13T14:15:54;4.30;;;1.57;;
577;SDS011;275;48.492;9.214;2023-07-13T14:18:22;7.10;;;1.87;;
577;SDS011;275;48.492;9.214;2023-07-13T14:20:50;5.53;;;1.90;;
577;SDS011;275;48.492;9.214;2023-07-13T14:23:17;5.00;;;1.80;;
577;SDS011;275;48.492;9.214;2023-07-13T14:25:44;6.57;;;2.20;;
577;SDS011;275;48.492;9.214;2023-07-13T14:28:21;4.27;;;1.80;;
577;SDS011;275;48.492;9.214;2023-07-13T14:30:51;4.43;;;1.57;;
577;SDS011;275;48.492;9.214;2023-07-13T14:33:19;3.27;;;1.67;;
577;SDS011;275;48.492;9.214;2023-07-13T14:35:49;4.20;;;2.10;;
577;SDS011;275;48.492;9.214;2023-07-13T14:38:16;5.10;;;2.17;;
577;SDS011;275;48.492;9.214;2023-07-13T14:40:45;4.20;;;1.83;;
577;SDS011;275;48.492;9.214;2023-07-13T14:43:12;4.27;;;2.07;;
577;SDS011;275;48.492;9.214;2023-07-13T14:45:41;5.60;;;2.20;;
577;SDS011;275;48.492;9.214;2023-07-13T14:48:13;4.30;;;2.03;;
577;SDS011;275;48.492;9.214;2023-07-13T14:50:41;6.37;;;2.10;;
577;SDS011;275;48.492;9.214;2023-07-13T14:53:10;4.00;;;1.80;;
577;SDS011;275;48.492;9.214;2023-07-13T14:55:38;3.77;;;1.77;;
577;SDS011;275;48.492;9.214;2023-07-13T14:58:05;6.73;;;1.73;;
577;SDS011;275;48.492;9.214;2023-07-13T15:00:32;4.93;;;1.80;;
577;SDS011;275;48.492;9.214;2023-07-13T15:02:59;5.87;;;1.73;;
577;SDS011;275;48.492;9.214;2023-07-13T15:05:28;4.80;;;1.90;;
577;SDS011;275;48.492;9.214;2023-07-13T15:07:56;4.20;;;1.80;;
577;SDS011;275;48.492;9.214;2023-07-13T15:10:27;4.13;;;1.77;;
577;SDS011;275;48.492;9.214;2023-07-13T15:12:57;4.13;;;1.80;;
577;SDS011;275;48.492;9.214;2023-07-13T15:15:27;5.10;;;2.13;;
577;SDS011;275;48.492;9.214;2023-07-13T15:17:56;5.03;;;1.60;;
577;SDS011;275;48.492;9.214;2023-07-13T15:20:26;5.10;;;1.90;;
577;SDS011;275;48.492;9.214;2023-07-13T15:22:55;4.53;;;1.97;;
577;SDS011;275;48.492;9.214;2023-07-13T15:25:23;4.90;;;1.90;;
577;SDS011;275;48.492;9.214;2023-07-13T15:27:52;3.70;;;1.90;;
577;SDS011;275;48.492;9.214;2023-07-13T15:30:20;5.30;;;1.77;;
577;SDS011;275;48.492;9.214;2023-07-13T15:32:48;6.23;;;2.10;;
577;SDS011;275;48.492;9.214;2023-07-13T15:35:15;6.10;;;1.83;;
577;SDS011;275;48.492;9.214;2023-07-13T15:37:43;4.80;;;1.83;;
577;SDS011;275;48.492;9.214;2023-07-13T15:40:11;4.40;;;1.40;;
577;SDS011;275;48.492;9.214;2023-07-13T15:42:40;5.80;;;2.00;;
577;SDS011;275;48.492;9.214;2023-07-13T15:45:16;4.23;;;1.40;;
577;SDS011;275;48.492;9.214;2023-07-13T15:47:44;4.07;;;1.83;;
577;SDS011;275;48.492;9.214;2023-07-13T15:50:12;5.17;;;2.30;;
577;SDS011;275;48.492;9.214;2023-07-13T15:52:39;4.67;;;2.00;;
577;SDS011;275;48.492;9.214;2023-07-13T15:55:09;6.27;;;1.93;;
577;SDS011;275;48.492;9.214;2023-07-13T15:57:37;3.97;;;1.80;;
577;SDS011;275;48.492;9.214;2023-07-13T16:00:09;6.03;;;2.30;;